San Cristobal, Dominican Republic
Current Conditions -  °F | °C
As of 8:00 PM on Monday 20 Oct 2014 (Local Time) from MDSD Reporting Station
Scattered Clouds Scattered Clouds  
Wind Chill: 79°   Ceiling: Unl
Heat Index: 82°   Visibility: 6mi
Dew Point: 73°   Wind: 5mph
Humidity: 83%   Direction: 360°N
Pressure: 29.91"   Gusts: NA
Location:  18.42°N, 70.11°W
Report Text: MDSD 210000Z 36004KT 9999 FEW016CB SCT018 SCT300 26/23 Q1013
Loading
Personal Weather Stations






























Interactive Weather Map
Tropical Storm Tracking
New forecast layout! Learn more

10-Day Weather Forecast

Advertisements
Track Severe Weather on mobile